^^
Station Historical Data
 
Daily Summary for October 20, 2017 Units:  Both    English   Metric
« Previous Day
Next Day »
Daily Weekly Monthly Yearly Custom
  Current: High: Low: Average:
Temperature: 74.8 °F /  23.8 °C 74.8 °F /  23.8 °C 60.4 °F /  15.8 °C 69.6 °F /  20.9 °C
Dew Point: 27.1 °F /  -2.7 °C 28.4 °F /  -2 °C 22.1 °F /  -5.5 °C 25.8 °F /  -3.4 °C
Humidity: 17% 24% 17% 19%
Wind Speed: 4.9mph /  7.9km/h 11.0mph /  17.7km/h - -30.4mph /  -48.9km/h
Wind Gust: 13.0mph /  20.9km/h 13.0mph /  20.9km/h - -
WindSW - -
Pressure: 29.74 in /  1007 hPa 29.74 in /  1007 hPa 29.69 in /  1005.3 hPa -
Precipitation: 0.00 in /  0 mm      
Historical Graphs
 
 
Tabular Data for October 20, 2017
Time Temperature Dew Point Pressure Wind Wind Speed Wind Gust Humidity Rainfall Rate (Hourly) solar Conditions
07:40 60.4 °F /  15.8 °C 22.5 °F /  -5.3 °C 29.69in /  1005.3hPa North -999.9mph /  -1609.1km/h -999.0mph /  -1607.7km/h 23% 0.00in /  0mm meteobridge W/m2
07:46 60.6 °F /  15.9 °C 23.5 °F /  -4.7 °C 29.70in /  1005.6hPa Calm     24% 0.00in /  0mm meteobridge W/m2
07:52 61.2 °F /  16.2 °C 24.1 °F /  -4.4 °C 29.70in /  1005.6hPa SW 0.9mph /  1.4km/h 1.0mph /  1.6km/h 24% 0.00in /  0mm meteobridge W/m2
07:58 61.7 °F /  16.5 °C 23.5 °F /  -4.7 °C 29.71in /  1006hPa Calm   1.0mph /  1.6km/h 23% 0.00in /  0mm meteobridge W/m2
08:04 62.6 °F /  17 °C 22.1 °F /  -5.5 °C 29.71in /  1006hPa Calm     21% 0.00in /  0mm meteobridge W/m2
08:11 63.9 °F /  17.7 °C 23.2 °F /  -4.9 °C 29.72in /  1006.3hPa Calm     21% 0.00in /  0mm meteobridge W/m2
08:17 64.9 °F /  18.3 °C 24.1 °F /  -4.4 °C 29.72in /  1006.3hPa Calm     21% 0.00in /  0mm meteobridge W/m2
08:23 66.2 °F /  19 °C 23.9 °F /  -4.5 °C 29.72in /  1006.3hPa SW 0.9mph /  1.4km/h 1.0mph /  1.6km/h 20% 0.00in /  0mm meteobridge W/m2
08:29 67.8 °F /  19.9 °C 25.3 °F /  -3.7 °C 29.73in /  1006.7hPa Calm   1.0mph /  1.6km/h 20% 0.00in /  0mm meteobridge W/m2
08:35 69.3 °F /  20.7 °C 26.4 °F /  -3.1 °C 29.73in /  1006.7hPa SSW 0.9mph /  1.4km/h 2.0mph /  3.2km/h 20% 0.00in /  0mm meteobridge W/m2
08:41 70.0 °F /  21.1 °C 25.9 °F /  -3.4 °C 29.73in /  1006.7hPa SW 2.0mph /  3.2km/h 2.0mph /  3.2km/h 19% 0.00in /  0mm meteobridge W/m2
08:48 70.0 °F /  21.1 °C 25.9 °F /  -3.4 °C 29.73in /  1006.7hPa NNW 2.9mph /  4.7km/h 3.0mph /  4.8km/h 19% 0.00in /  0mm meteobridge W/m2
08:54 70.3 °F /  21.3 °C 26.1 °F /  -3.3 °C 29.73in /  1006.7hPa Calm   2.0mph /  3.2km/h 19% 0.00in /  0mm meteobridge W/m2
09:00 70.7 °F /  21.5 °C 26.4 °F /  -3.1 °C 29.73in /  1006.7hPa North 2.0mph /  3.2km/h 4.0mph /  6.4km/h 19% 0.00in /  0mm meteobridge W/m2
09:06 70.7 °F /  21.5 °C 26.4 °F /  -3.1 °C 29.73in /  1006.7hPa NNE 4.9mph /  7.9km/h 5.0mph /  8km/h 19% 0.00in /  0mm meteobridge W/m2
09:12 70.7 °F /  21.5 °C 26.4 °F /  -3.1 °C 29.73in /  1006.7hPa North 2.0mph /  3.2km/h 6.0mph /  9.7km/h 19% 0.00in /  0mm meteobridge W/m2
09:18 72.0 °F /  22.2 °C 26.1 °F /  -3.3 °C 29.73in /  1006.7hPa NNE 0.9mph /  1.4km/h 8.0mph /  12.9km/h 18% 0.00in /  0mm meteobridge W/m2
09:24 72.7 °F /  22.6 °C 25.3 °F /  -3.7 °C 29.73in /  1006.7hPa ESE 2.0mph /  3.2km/h 3.0mph /  4.8km/h 17% 0.00in /  0mm meteobridge W/m2
09:30 73.6 °F /  23.1 °C 26.1 °F /  -3.3 °C 29.73in /  1006.7hPa East 6.0mph /  9.7km/h 6.0mph /  9.7km/h 17% 0.00in /  0mm meteobridge W/m2
09:36 73.6 °F /  23.1 °C 26.1 °F /  -3.3 °C 29.73in /  1006.7hPa Calm   5.0mph /  8km/h 17% 0.00in /  0mm meteobridge W/m2
09:42 73.8 °F /  23.2 °C 27.7 °F /  -2.4 °C 29.73in /  1006.7hPa South 11.0mph /  17.7km/h 11.0mph /  17.7km/h 18% 0.00in /  0mm meteobridge W/m2
09:48 72.7 °F /  22.6 °C 26.8 °F /  -2.9 °C 29.73in /  1006.7hPa SSW 4.0mph /  6.4km/h 6.0mph /  9.7km/h 18% 0.00in /  0mm meteobridge W/m2
09:54 72.7 °F /  22.6 °C 26.8 °F /  -2.9 °C 29.73in /  1006.7hPa South 2.9mph /  4.7km/h 9.0mph /  14.5km/h 18% 0.00in /  0mm meteobridge W/m2
10:01 72.5 °F /  22.5 °C 26.6 °F /  -3 °C 29.73in /  1006.7hPa South 4.0mph /  6.4km/h 6.0mph /  9.7km/h 18% 0.00in /  0mm meteobridge W/m2
10:07 73.2 °F /  22.9 °C 27.1 °F /  -2.7 °C 29.74in /  1007hPa SSE 6.0mph /  9.7km/h 7.0mph /  11.3km/h 18% 0.00in /  0mm meteobridge W/m2
10:12 73.6 °F /  23.1 °C 27.5 °F /  -2.5 °C 29.73in /  1006.7hPa South 11.0mph /  17.7km/h 13.0mph /  20.9km/h 18% 0.00in /  0mm meteobridge W/m2
10:19 73.6 °F /  23.1 °C 27.5 °F /  -2.5 °C 29.74in /  1007hPa SSW 4.9mph /  7.9km/h 7.0mph /  11.3km/h 18% 0.00in /  0mm meteobridge W/m2
10:25 73.9 °F /  23.3 °C 27.7 °F /  -2.4 °C 29.73in /  1006.7hPa South 6.9mph /  11.1km/h 9.0mph /  14.5km/h 18% 0.00in /  0mm meteobridge W/m2
10:31 74.8 °F /  23.8 °C 28.4 °F /  -2 °C 29.73in /  1006.7hPa SE 6.9mph /  11.1km/h 10.0mph /  16.1km/h 18% 0.00in /  0mm meteobridge W/m2
10:37 74.8 °F /  23.8 °C 27.1 °F /  -2.7 °C 29.74in /  1007hPa SW 4.9mph /  7.9km/h 13.0mph /  20.9km/h 17% 0.00in /  0mm meteobridge W/m2
Regenstein, Windhoek, Namibia
Compliments of Weather Underground - 2 mb